createdAt,value
2023-05-19T10:37:32.518Z,50.13
2023-05-19T10:42:46.863Z,51.48
2023-05-19T10:47:55.573Z,52.76
2023-05-19T10:53:00.658Z,53.81
2023-05-19T10:58:04.276Z,55.37
2023-05-19T11:04:03.999Z,56.56
2023-05-19T11:09:24.507Z,57.81
2023-05-19T11:14:39.819Z,59.45
2023-05-19T11:19:54.866Z,60.88
2023-05-19T11:24:58.274Z,61.96
2023-05-19T11:30:15.270Z,62.32
2023-05-19T11:35:21.721Z,61.65
2023-05-19T11:40:29.155Z,62.32
2023-05-19T11:45:35.922Z,62.65
2023-05-19T11:50:47.477Z,62.28
2023-05-19T11:55:51.100Z,62.48
2023-05-19T12:01:00.307Z,64.23
2023-05-19T12:06:06.280Z,64.68
2023-05-19T12:11:11.052Z,65.26
2023-05-19T12:16:21.211Z,65.45
2023-05-19T12:21:24.959Z,65.94
2023-05-19T12:26:37.810Z,66.41
2023-05-19T12:31:41.824Z,66.99
2023-05-19T12:36:55.102Z,67.91
2023-05-19T12:42:09.300Z,68.51
2023-05-19T12:47:14.336Z,69.31
2023-05-19T12:52:17.722Z,69.79
2023-05-19T12:57:22.433Z,70.41
2023-05-19T13:02:29.756Z,71.08
2023-05-19T13:07:33.142Z,71.77
2023-05-19T13:12:36.628Z,72.03
2023-05-19T13:17:39.937Z,72.85
2023-05-19T13:22:44.310Z,73.86
2023-05-19T13:27:48.513Z,73.16
2023-05-19T13:32:52.909Z,72.15
2023-05-19T13:37:56.421Z,71.48
2023-05-19T13:43:02.487Z,69.18
2023-05-19T13:48:07.816Z,67.99
2023-05-19T13:53:13.052Z,67.91
2023-05-19T13:58:17.881Z,67.69
2023-05-19T14:03:25.423Z,67.73
2023-05-19T14:08:29.190Z,68.59
2023-05-19T14:13:37.222Z,69.46
2023-05-19T14:18:49.746Z,69.90
2023-05-19T14:23:55.871Z,70.26
2023-05-19T14:28:59.444Z,69.83
2023-05-19T14:34:05.617Z,68.98
2023-05-19T14:39:10.109Z,68.42
2023-05-19T14:44:14.954Z,68.08
2023-05-19T14:49:19.001Z,68.32
2023-05-19T14:54:23.451Z,67.63
2023-05-19T14:59:33.131Z,67.49
2023-05-19T15:04:39.723Z,66.64
2023-05-19T15:09:43.724Z,66.96
2023-05-19T15:14:47.354Z,67.12
2023-05-19T15:19:50.756Z,67.82
2023-05-19T15:24:59.777Z,68.39
2023-05-19T15:30:10.416Z,68.94
2023-05-19T15:35:14.029Z,69.31
2023-05-19T15:40:17.531Z,69.31
2023-05-19T15:45:21.030Z,69.35
2023-05-19T15:50:27.485Z,68.79
2023-05-19T15:55:31.454Z,68.84
2023-05-19T16:00:35.222Z,69.08
2023-05-19T16:05:39.018Z,68.99
2023-05-19T16:10:42.523Z,69.37
2023-05-19T16:15:46.710Z,69.52
2023-05-19T16:20:51.595Z,69.60
2023-05-19T16:25:55.684Z,69.69
2023-05-19T16:31:00.476Z,69.73
2023-05-19T16:36:07.013Z,69.76
2023-05-19T16:41:13.194Z,69.99
2023-05-19T16:46:16.805Z,70.20
2023-05-19T16:51:20.321Z,70.18
2023-05-19T16:56:23.820Z,70.50
2023-05-19T17:01:27.452Z,70.62
2023-05-19T17:06:31.495Z,70.73
2023-05-19T17:11:34.878Z,70.66
2023-05-19T17:16:38.690Z,70.87
2023-05-19T17:21:42.604Z,71.18
2023-05-19T17:26:46.426Z,71.52
2023-05-19T17:31:49.824Z,71.90
2023-05-19T17:36:53.613Z,71.99
2023-05-19T17:42:00.162Z,72.25
2023-05-19T17:47:04.318Z,72.34
2023-05-19T17:52:08.612Z,72.47
2023-05-19T17:57:13.387Z,72.91
2023-05-19T18:02:18.988Z,73.31
2023-05-19T18:07:26.018Z,73.60
2023-05-19T18:12:31.941Z,73.81
2023-05-19T18:17:35.931Z,73.87
2023-05-19T18:22:39.587Z,74.25
2023-05-19T18:27:44.324Z,74.97
2023-05-19T18:32:47.883Z,75.07
2023-05-19T18:37:51.442Z,75.41
2023-05-19T18:42:54.990Z,75.79
2023-05-19T18:47:58.421Z,75.81
2023-05-19T18:53:01.828Z,76.23
2023-05-19T18:58:05.349Z,76.54
2023-05-19T19:03:10.649Z,76.35
2023-05-19T19:08:13.989Z,76.71
2023-05-19T19:13:20.950Z,77.15
2023-05-19T19:18:27.199Z,77.30
2023-05-19T19:23:31.038Z,77.89
2023-05-19T19:28:34.897Z,78.46
2023-05-19T19:33:38.342Z,79.47
2023-05-19T19:38:41.829Z,80.51
2023-05-19T19:43:45.363Z,81.05
2023-05-19T19:48:48.764Z,81.10
2023-05-19T19:53:52.163Z,81.74
2023-05-19T19:58:59.025Z,82.42
2023-05-19T20:04:02.916Z,83.78
2023-05-19T20:09:09.164Z,84.85
2023-05-19T20:14:12.516Z,85.63
2023-05-19T20:19:16.028Z,86.03
2023-05-19T20:24:20.019Z,86.26
2023-05-19T20:29:24.300Z,86.89
2023-05-19T20:34:28.039Z,87.15
2023-05-19T20:39:31.627Z,87.50
2023-05-19T20:44:34.967Z,87.64
2023-05-19T20:49:38.466Z,88.16
2023-05-19T20:54:42.349Z,88.44
2023-05-19T20:59:46.388Z,88.72
2023-05-19T21:04:51.161Z,89.17
2023-05-19T21:09:54.704Z,89.32
2023-05-19T21:14:58.586Z,90.09
2023-05-19T21:20:02.453Z,89.82
2023-05-19T21:25:06.790Z,89.85
2023-05-19T21:30:14.651Z,89.95
2023-05-19T21:35:18.235Z,90.18
2023-05-19T21:40:21.800Z,90.24
2023-05-19T21:45:26.387Z,90.46
2023-05-19T21:50:29.759Z,90.84
2023-05-19T21:55:33.174Z,90.79
2023-05-19T22:00:37.112Z,91.07
2023-05-19T22:05:40.525Z,91.11
2023-05-19T22:10:44.476Z,91.20
2023-05-19T22:15:47.920Z,91.41
2023-05-19T22:20:51.199Z,91.37
2023-05-19T22:25:54.673Z,91.60
2023-05-19T22:30:58.157Z,91.68
2023-05-19T22:36:01.757Z,91.67
2023-05-19T22:41:05.949Z,91.71
2023-05-19T22:46:09.293Z,91.93
2023-05-19T22:51:12.816Z,91.94
2023-05-19T22:56:16.937Z,92.00
2023-05-19T23:01:20.236Z,91.86
2023-05-19T23:06:23.657Z,91.77
2023-05-19T23:11:26.987Z,91.38
2023-05-19T23:16:30.432Z,91.15
2023-05-19T23:21:33.747Z,91.16
2023-05-19T23:26:37.049Z,90.91
2023-05-19T23:31:42.608Z,90.89
2023-05-19T23:36:46.407Z,90.80
2023-05-19T23:41:49.777Z,90.55
2023-05-19T23:46:53.228Z,90.35
2023-05-19T23:51:57.153Z,90.01
2023-05-19T23:57:02.575Z,89.91
